sensor_id;sensor_type;location;lat;lon;timestamp;P1;durP1;ratioP1;P2;durP2;ratioP2
34741;SDS011;20968;42.696;23.360;2022-09-01T00:00:26;13.00;;;9.35;;
34741;SDS011;20968;42.696;23.360;2022-09-01T00:02:54;12.05;;;9.20;;
34741;SDS011;20968;42.696;23.360;2022-09-01T00:08:34;10.02;;;8.07;;
34741;SDS011;20968;42.696;23.360;2022-09-01T00:11:03;16.90;;;9.45;;
34741;SDS011;20968;42.696;23.360;2022-09-01T00:13:52;10.82;;;8.68;;
34741;SDS011;20968;42.696;23.360;2022-09-01T00:16:18;11.35;;;8.40;;
34741;SDS011;20968;42.696;23.360;2022-09-01T00:21:41;11.30;;;8.38;;
34741;SDS011;20968;42.696;23.360;2022-09-01T00:24:10;13.60;;;9.02;;
34741;SDS011;20968;42.696;23.360;2022-09-01T00:26:40;13.25;;;8.95;;
34741;SDS011;20968;42.696;23.360;2022-09-01T00:29:07;16.00;;;9.00;;
34741;SDS011;20968;42.696;23.360;2022-09-01T00:31:33;11.05;;;8.23;;
34741;SDS011;20968;42.696;23.360;2022-09-01T00:34:01;10.00;;;7.22;;
34741;SDS011;20968;42.696;23.360;2022-09-01T00:36:27;9.95;;;7.30;;
34741;SDS011;20968;42.696;23.360;2022-09-01T00:41:28;9.13;;;7.05;;
34741;SDS011;20968;42.696;23.360;2022-09-01T00:44:20;11.40;;;7.53;;
34741;SDS011;20968;42.696;23.360;2022-09-01T00:46:53;9.40;;;7.35;;
34741;SDS011;20968;42.696;23.360;2022-09-01T00:49:41;11.40;;;8.20;;
34741;SDS011;20968;42.696;23.360;2022-09-01T00:52:11;10.98;;;8.18;;
34741;SDS011;20968;42.696;23.360;2022-09-01T00:54:42;9.27;;;7.40;;
34741;SDS011;20968;42.696;23.360;2022-09-01T00:57:11;11.57;;;8.98;;
34741;SDS011;20968;42.696;23.360;2022-09-01T01:00:21;13.45;;;8.25;;
34741;SDS011;20968;42.696;23.360;2022-09-01T01:02:43;13.82;;;8.27;;
34741;SDS011;20968;42.696;23.360;2022-09-01T01:05:09;11.60;;;8.38;;
34741;SDS011;20968;42.696;23.360;2022-09-01T01:07:36;8.95;;;7.63;;
34741;SDS011;20968;42.696;23.360;2022-09-01T01:10:05;10.63;;;8.45;;
34741;SDS011;20968;42.696;23.360;2022-09-01T01:12:39;10.82;;;7.40;;
34741;SDS011;20968;42.696;23.360;2022-09-01T01:15:07;14.10;;;8.70;;
34741;SDS011;20968;42.696;23.360;2022-09-01T01:17:35;9.38;;;7.20;;
34741;SDS011;20968;42.696;23.360;2022-09-01T01:20:01;10.25;;;8.07;;
34741;SDS011;20968;42.696;23.360;2022-09-01T01:23:29;12.15;;;7.18;;
34741;SDS011;20968;42.696;23.360;2022-09-01T01:25:56;9.55;;;7.50;;
34741;SDS011;20968;42.696;23.360;2022-09-01T01:28:26;10.80;;;7.68;;
34741;SDS011;20968;42.696;23.360;2022-09-01T01:33:34;14.07;;;8.45;;
34741;SDS011;20968;42.696;23.360;2022-09-01T01:36:08;10.20;;;7.50;;
34741;SDS011;20968;42.696;23.360;2022-09-01T01:38:41;10.27;;;8.13;;
34741;SDS011;20968;42.696;23.360;2022-09-01T01:41:12;9.18;;;7.25;;
34741;SDS011;20968;42.696;23.360;2022-09-01T01:43:39;10.75;;;6.93;;
34741;SDS011;20968;42.696;23.360;2022-09-01T01:46:06;15.25;;;8.15;;
34741;SDS011;20968;42.696;23.360;2022-09-01T01:48:40;10.45;;;8.65;;
34741;SDS011;20968;42.696;23.360;2022-09-01T01:51:10;12.77;;;8.35;;
34741;SDS011;20968;42.696;23.360;2022-09-01T01:53:38;9.95;;;7.38;;
34741;SDS011;20968;42.696;23.360;2022-09-01T01:56:05;12.25;;;8.63;;
34741;SDS011;20968;42.696;23.360;2022-09-01T01:58:52;11.43;;;7.70;;
34741;SDS011;20968;42.696;23.360;2022-09-01T02:01:26;10.25;;;8.52;;
34741;SDS011;20968;42.696;23.360;2022-09-01T02:03:57;9.40;;;8.13;;
34741;SDS011;20968;42.696;23.360;2022-09-01T02:06:27;9.15;;;7.80;;
34741;SDS011;20968;42.696;23.360;2022-09-01T02:08:59;11.50;;;8.90;;
34741;SDS011;20968;42.696;23.360;2022-09-01T02:11:33;13.20;;;7.70;;
34741;SDS011;20968;42.696;23.360;2022-09-01T02:14:02;10.75;;;7.30;;
34741;SDS011;20968;42.696;23.360;2022-09-01T02:16:29;9.65;;;8.60;;
34741;SDS011;20968;42.696;23.360;2022-09-01T02:18:56;12.00;;;8.30;;
34741;SDS011;20968;42.696;23.360;2022-09-01T02:21:23;17.67;;;9.95;;
34741;SDS011;20968;42.696;23.360;2022-09-01T02:23:53;11.18;;;8.43;;
34741;SDS011;20968;42.696;23.360;2022-09-01T02:26:38;14.85;;;8.95;;
34741;SDS011;20968;42.696;23.360;2022-09-01T02:29:09;12.90;;;8.93;;
34741;SDS011;20968;42.696;23.360;2022-09-01T02:31:43;9.13;;;7.88;;
34741;SDS011;20968;42.696;23.360;2022-09-01T02:34:10;17.67;;;10.20;;
34741;SDS011;20968;42.696;23.360;2022-09-01T02:36:38;11.50;;;8.27;;
34741;SDS011;20968;42.696;23.360;2022-09-01T02:39:26;14.25;;;8.93;;
34741;SDS011;20968;42.696;23.360;2022-09-01T02:41:53;12.90;;;8.63;;
34741;SDS011;20968;42.696;23.360;2022-09-01T02:44:19;13.45;;;8.20;;
34741;SDS011;20968;42.696;23.360;2022-09-01T02:46:46;14.18;;;8.93;;
34741;SDS011;20968;42.696;23.360;2022-09-01T02:49:14;15.00;;;9.35;;
34741;SDS011;20968;42.696;23.360;2022-09-01T02:51:47;19.40;;;10.05;;
34741;SDS011;20968;42.696;23.360;2022-09-01T02:54:16;12.88;;;8.25;;
34741;SDS011;20968;42.696;23.360;2022-09-01T02:56:43;16.83;;;8.73;;
34741;SDS011;20968;42.696;23.360;2022-09-01T02:59:14;15.85;;;8.20;;
34741;SDS011;20968;42.696;23.360;2022-09-01T03:04:12;14.48;;;9.50;;
34741;SDS011;20968;42.696;23.360;2022-09-01T03:06:38;10.55;;;8.43;;
34741;SDS011;20968;42.696;23.360;2022-09-01T03:09:16;17.15;;;10.85;;
34741;SDS011;20968;42.696;23.360;2022-09-01T03:11:47;10.75;;;9.30;;
34741;SDS011;20968;42.696;23.360;2022-09-01T03:14:32;11.05;;;8.15;;
34741;SDS011;20968;42.696;23.360;2022-09-01T03:16:57;13.73;;;9.13;;
34741;SDS011;20968;42.696;23.360;2022-09-01T03:19:34;16.75;;;9.38;;
34741;SDS011;20968;42.696;23.360;2022-09-01T03:22:09;13.60;;;9.38;;
34741;SDS011;20968;42.696;23.360;2022-09-01T03:24:37;11.45;;;8.48;;
34741;SDS011;20968;42.696;23.360;2022-09-01T03:27:03;19.35;;;10.10;;
34741;SDS011;20968;42.696;23.360;2022-09-01T03:29:32;13.30;;;10.55;;
34741;SDS011;20968;42.696;23.360;2022-09-01T03:32:02;23.48;;;12.25;;
34741;SDS011;20968;42.696;23.360;2022-09-01T03:34:28;18.10;;;12.07;;
34741;SDS011;20968;42.696;23.360;2022-09-01T03:36:53;18.45;;;11.07;;
34741;SDS011;20968;42.696;23.360;2022-09-01T03:39:20;17.00;;;11.45;;
34741;SDS011;20968;42.696;23.360;2022-09-01T03:41:45;14.52;;;11.00;;
34741;SDS011;20968;42.696;23.360;2022-09-01T03:44:12;27.75;;;13.90;;
34741;SDS011;20968;42.696;23.360;2022-09-01T03:46:47;20.70;;;12.98;;
34741;SDS011;20968;42.696;23.360;2022-09-01T03:55:56;24.42;;;13.43;;
34741;SDS011;20968;42.696;23.360;2022-09-01T03:58:23;20.10;;;13.73;;
34741;SDS011;20968;42.696;23.360;2022-09-01T04:00:51;21.88;;;13.63;;
34741;SDS011;20968;42.696;23.360;2022-09-01T04:03:19;26.77;;;14.45;;
34741;SDS011;20968;42.696;23.360;2022-09-01T04:05:50;23.10;;;15.30;;
34741;SDS011;20968;42.696;23.360;2022-09-01T04:08:19;23.58;;;15.07;;
34741;SDS011;20968;42.696;23.360;2022-09-01T04:10:51;23.25;;;14.68;;
34741;SDS011;20968;42.696;23.360;2022-09-01T04:13:27;27.83;;;15.65;;
34741;SDS011;20968;42.696;23.360;2022-09-01T04:15:56;30.42;;;16.50;;
34741;SDS011;20968;42.696;23.360;2022-09-01T04:18:29;36.80;;;17.23;;
34741;SDS011;20968;42.696;23.360;2022-09-01T04:20:57;34.75;;;17.45;;
34741;SDS011;20968;42.696;23.360;2022-09-01T04:23:25;28.75;;;15.75;;
34741;SDS011;20968;42.696;23.360;2022-09-01T04:28:33;31.85;;;15.25;;
34741;SDS011;20968;42.696;23.360;2022-09-01T04:31:02;29.90;;;15.73;;
34741;SDS011;20968;42.696;23.360;2022-09-01T04:33:38;36.88;;;18.45;;
34741;SDS011;20968;42.696;23.360;2022-09-01T04:36:05;31.60;;;16.45;;
34741;SDS011;20968;42.696;23.360;2022-09-01T04:38:48;34.15;;;15.27;;
34741;SDS011;20968;42.696;23.360;2022-09-01T04:41:24;26.00;;;14.55;;
34741;SDS011;20968;42.696;23.360;2022-09-01T04:43:59;24.23;;;14.25;;
34741;SDS011;20968;42.696;23.360;2022-09-01T04:46:29;30.85;;;16.17;;
34741;SDS011;20968;42.696;23.360;2022-09-01T04:51:34;26.05;;;15.43;;
34741;SDS011;20968;42.696;23.360;2022-09-01T04:54:05;27.80;;;16.00;;
34741;SDS011;20968;42.696;23.360;2022-09-01T04:56:49;27.48;;;16.88;;
34741;SDS011;20968;42.696;23.360;2022-09-01T04:59:20;26.38;;;15.80;;
34741;SDS011;20968;42.696;23.360;2022-09-01T05:01:48;26.55;;;15.13;;
34741;SDS011;20968;42.696;23.360;2022-09-01T05:04:22;29.77;;;16.38;;
34741;SDS011;20968;42.696;23.360;2022-09-01T05:06:55;24.70;;;15.90;;
34741;SDS011;20968;42.696;23.360;2022-09-01T05:09:30;25.52;;;15.63;;
34741;SDS011;20968;42.696;23.360;2022-09-01T05:12:10;25.27;;;14.63;;
34741;SDS011;20968;42.696;23.360;2022-09-01T05:14:53;20.58;;;14.95;;
34741;SDS011;20968;42.696;23.360;2022-09-01T05:17:23;26.02;;;16.13;;
34741;SDS011;20968;42.696;23.360;2022-09-01T05:20:09;24.90;;;14.70;;
34741;SDS011;20968;42.696;23.360;2022-09-01T05:22:37;41.45;;;21.42;;
34741;SDS011;20968;42.696;23.360;2022-09-01T05:25:05;37.97;;;19.33;;
34741;SDS011;20968;42.696;23.360;2022-09-01T05:27:41;38.83;;;19.80;;
34741;SDS011;20968;42.696;23.360;2022-09-01T05:30:14;40.65;;;19.00;;
34741;SDS011;20968;42.696;23.360;2022-09-01T05:32:42;40.40;;;22.40;;
34741;SDS011;20968;42.696;23.360;2022-09-01T05:35:17;40.08;;;22.45;;
34741;SDS011;20968;42.696;23.360;2022-09-01T05:37:44;45.20;;;20.58;;
34741;SDS011;20968;42.696;23.360;2022-09-01T05:40:12;39.20;;;21.45;;
34741;SDS011;20968;42.696;23.360;2022-09-01T05:42:40;37.40;;;21.27;;
34741;SDS011;20968;42.696;23.360;2022-09-01T05:45:07;43.28;;;21.77;;
34741;SDS011;20968;42.696;23.360;2022-09-01T05:47:37;43.85;;;19.95;;
34741;SDS011;20968;42.696;23.360;2022-09-01T05:50:07;44.80;;;20.60;;
34741;SDS011;20968;42.696;23.360;2022-09-01T05:52:36;35.70;;;19.45;;
34741;SDS011;20968;42.696;23.360;2022-09-01T05:55:04;43.25;;;22.63;;
34741;SDS011;20968;42.696;23.360;2022-09-01T05:57:40;36.58;;;20.75;;
34741;SDS011;20968;42.696;23.360;2022-09-01T06:00:12;44.15;;;22.15;;
34741;SDS011;20968;42.696;23.360;2022-09-01T06:02:38;34.75;;;19.13;;
34741;SDS011;20968;42.696;23.360;2022-09-01T06:05:14;40.33;;;20.25;;
34741;SDS011;20968;42.696;23.360;2022-09-01T06:07:46;39.47;;;19.95;;
34741;SDS011;20968;42.696;23.360;2022-09-01T06:10:16;42.20;;;20.88;;
34741;SDS011;20968;42.696;23.360;2022-09-01T06:12:41;42.60;;;21.45;;
34741;SDS011;20968;42.696;23.360;2022-09-01T06:15:11;41.00;;;21.08;;
34741;SDS011;20968;42.696;23.360;2022-09-01T06:17:40;36.45;;;16.90;;
34741;SDS011;20968;42.696;23.360;2022-09-01T06:20:05;34.10;;;19.33;;
34741;SDS011;20968;42.696;23.360;2022-09-01T06:22:51;35.53;;;17.25;;
34741;SDS011;20968;42.696;23.360;2022-09-01T06:25:18;33.50;;;15.50;;
34741;SDS011;20968;42.696;23.360;2022-09-01T06:27:50;36.83;;;16.35;;
34741;SDS011;20968;42.696;23.360;2022-09-01T06:30:18;29.50;;;17.33;;
34741;SDS011;20968;42.696;23.360;2022-09-01T06:32:46;32.72;;;17.48;;
34741;SDS011;20968;42.696;23.360;2022-09-01T06:35:19;36.97;;;17.65;;
34741;SDS011;20968;42.696;23.360;2022-09-01T06:37:46;31.52;;;17.27;;
34741;SDS011;20968;42.696;23.360;2022-09-01T06:40:13;33.78;;;17.50;;
34741;SDS011;20968;42.696;23.360;2022-09-01T06:42:47;35.83;;;18.08;;
34741;SDS011;20968;42.696;23.360;2022-09-01T06:45:16;30.08;;;17.58;;
34741;SDS011;20968;42.696;23.360;2022-09-01T06:47:44;33.13;;;17.60;;
34741;SDS011;20968;42.696;23.360;2022-09-01T06:50:14;26.67;;;15.23;;
34741;SDS011;20968;42.696;23.360;2022-09-01T06:52:41;30.88;;;16.17;;
34741;SDS011;20968;42.696;23.360;2022-09-01T06:55:08;30.83;;;15.38;;
34741;SDS011;20968;42.696;23.360;2022-09-01T06:57:36;35.50;;;18.70;;
34741;SDS011;20968;42.696;23.360;2022-09-01T07:00:06;30.92;;;17.08;;
34741;SDS011;20968;42.696;23.360;2022-09-01T07:02:42;26.40;;;16.35;;
34741;SDS011;20968;42.696;23.360;2022-09-01T07:05:09;29.77;;;16.48;;
34741;SDS011;20968;42.696;23.360;2022-09-01T07:07:45;26.27;;;16.40;;
34741;SDS011;20968;42.696;23.360;2022-09-01T07:10:15;25.30;;;14.75;;
34741;SDS011;20968;42.696;23.360;2022-09-01T07:12:48;25.63;;;15.40;;
34741;SDS011;20968;42.696;23.360;2022-09-01T07:15:17;24.30;;;15.90;;
34741;SDS011;20968;42.696;23.360;2022-09-01T07:17:51;27.63;;;16.20;;
34741;SDS011;20968;42.696;23.360;2022-09-01T07:20:20;24.13;;;14.18;;
34741;SDS011;20968;42.696;23.360;2022-09-01T07:22:48;22.70;;;13.40;;
34741;SDS011;20968;42.696;23.360;2022-09-01T07:25:16;25.50;;;15.50;;
34741;SDS011;20968;42.696;23.360;2022-09-01T07:27:43;23.88;;;14.60;;
34741;SDS011;20968;42.696;23.360;2022-09-01T07:30:20;21.63;;;14.13;;
34741;SDS011;20968;42.696;23.360;2022-09-01T07:32:47;29.38;;;15.10;;
34741;SDS011;20968;42.696;23.360;2022-09-01T07:35:15;25.00;;;13.98;;
34741;SDS011;20968;42.696;23.360;2022-09-01T07:37:44;25.85;;;15.57;;
34741;SDS011;20968;42.696;23.360;2022-09-01T07:40:11;23.50;;;13.65;;
34741;SDS011;20968;42.696;23.360;2022-09-01T07:42:46;28.20;;;16.63;;
34741;SDS011;20968;42.696;23.360;2022-09-01T07:45:14;24.63;;;16.08;;
34741;SDS011;20968;42.696;23.360;2022-09-01T07:47:42;29.00;;;17.10;;
34741;SDS011;20968;42.696;23.360;2022-09-01T07:50:09;24.88;;;15.45;;
34741;SDS011;20968;42.696;23.360;2022-09-01T07:52:38;27.30;;;16.85;;
34741;SDS011;20968;42.696;23.360;2022-09-01T07:55:11;28.90;;;17.33;;
34741;SDS011;20968;42.696;23.360;2022-09-01T07:57:38;27.02;;;16.40;;
34741;SDS011;20968;42.696;23.360;2022-09-01T08:00:06;28.45;;;16.75;;
34741;SDS011;20968;42.696;23.360;2022-09-01T08:02:34;31.05;;;17.27;;
34741;SDS011;20968;42.696;23.360;2022-09-01T08:05:04;27.50;;;17.80;;
34741;SDS011;20968;42.696;23.360;2022-09-01T08:07:33;28.45;;;18.42;;
34741;SDS011;20968;42.696;23.360;2022-09-01T08:10:00;29.85;;;17.75;;
34741;SDS011;20968;42.696;23.360;2022-09-01T08:12:25;27.15;;;16.70;;
34741;SDS011;20968;42.696;23.360;2022-09-01T08:14:51;30.52;;;16.33;;
34741;SDS011;20968;42.696;23.360;2022-09-01T08:17:17;33.58;;;18.15;;
34741;SDS011;20968;42.696;23.360;2022-09-01T08:19:44;27.17;;;16.17;;
34741;SDS011;20968;42.696;23.360;2022-09-01T08:22:11;29.55;;;15.73;;
34741;SDS011;20968;42.696;23.360;2022-09-01T08:24:36;22.42;;;14.88;;
34741;SDS011;20968;42.696;23.360;2022-09-01T08:27:02;28.48;;;16.67;;
34741;SDS011;20968;42.696;23.360;2022-09-01T08:29:28;26.40;;;15.07;;
34741;SDS011;20968;42.696;23.360;2022-09-01T08:31:54;28.73;;;16.60;;
34741;SDS011;20968;42.696;23.360;2022-09-01T08:34:19;23.52;;;16.15;;
34741;SDS011;20968;42.696;23.360;2022-09-01T08:36:45;26.80;;;15.77;;
34741;SDS011;20968;42.696;23.360;2022-09-01T08:39:12;31.00;;;16.48;;
34741;SDS011;20968;42.696;23.360;2022-09-01T08:44:28;23.15;;;14.80;;
34741;SDS011;20968;42.696;23.360;2022-09-01T08:47:09;21.90;;;14.27;;
34741;SDS011;20968;42.696;23.360;2022-09-01T08:49:37;19.30;;;13.77;;
34741;SDS011;20968;42.696;23.360;2022-09-01T08:57:45;20.40;;;12.13;;
34741;SDS011;20968;42.696;23.360;2022-09-01T09:00:16;22.02;;;11.65;;
34741;SDS011;20968;42.696;23.360;2022-09-01T09:11:40;24.15;;;12.10;;
34741;SDS011;20968;42.696;23.360;2022-09-01T09:14:24;23.17;;;13.48;;
34741;SDS011;20968;42.696;23.360;2022-09-01T09:20:32;20.08;;;11.38;;
34741;SDS011;20968;42.696;23.360;2022-09-01T09:29:59;18.42;;;10.50;;
34741;SDS011;20968;42.696;23.360;2022-09-01T09:36:29;20.23;;;9.25;;
34741;SDS011;20968;42.696;23.360;2022-09-01T09:39:39;18.92;;;9.05;;
34741;SDS011;20968;42.696;23.360;2022-09-01T09:42:07;12.45;;;8.30;;
34741;SDS011;20968;42.696;23.360;2022-09-01T10:01:29;11.90;;;7.47;;
34741;SDS011;20968;42.696;23.360;2022-09-01T10:14:20;9.13;;;5.88;;
34741;SDS011;20968;42.696;23.360;2022-09-01T10:16:47;8.70;;;6.65;;
34741;SDS011;20968;42.696;23.360;2022-09-01T10:19:17;9.40;;;6.30;;
34741;SDS011;20968;42.696;23.360;2022-09-01T10:21:44;7.55;;;5.85;;
34741;SDS011;20968;42.696;23.360;2022-09-01T10:24:16;8.38;;;6.60;;
34741;SDS011;20968;42.696;23.360;2022-09-01T10:26:50;10.52;;;6.85;;
34741;SDS011;20968;42.696;23.360;2022-09-01T10:29:30;7.40;;;5.75;;
34741;SDS011;20968;42.696;23.360;2022-09-01T10:31:59;8.38;;;6.95;;
34741;SDS011;20968;42.696;23.360;2022-09-01T10:34:33;8.48;;;5.88;;
34741;SDS011;20968;42.696;23.360;2022-09-01T10:37:01;10.45;;;6.80;;
34741;SDS011;20968;42.696;23.360;2022-09-01T10:40:12;7.93;;;6.35;;
34741;SDS011;20968;42.696;23.360;2022-09-01T10:42:35;11.27;;;6.40;;
34741;SDS011;20968;42.696;23.360;2022-09-01T10:45:01;7.97;;;6.18;;
34741;SDS011;20968;42.696;23.360;2022-09-01T10:58:07;8.35;;;5.90;;
34741;SDS011;20968;42.696;23.360;2022-09-01T11:00:58;9.00;;;5.35;;
34741;SDS011;20968;42.696;23.360;2022-09-01T11:03:34;10.30;;;8.00;;
34741;SDS011;20968;42.696;23.360;2022-09-01T11:06:05;12.85;;;6.43;;
34741;SDS011;20968;42.696;23.360;2022-09-01T11:14:24;6.60;;;5.75;;
34741;SDS011;20968;42.696;23.360;2022-09-01T11:17:14;15.77;;;5.78;;
34741;SDS011;20968;42.696;23.360;2022-09-01T11:19:53;10.82;;;5.50;;
34741;SDS011;20968;42.696;23.360;2022-09-01T11:22:33;6.57;;;5.32;;
34741;SDS011;20968;42.696;23.360;2022-09-01T11:30:58;5.95;;;5.25;;
34741;SDS011;20968;42.696;23.360;2022-09-01T11:47:19;6.38;;;4.68;;
34741;SDS011;20968;42.696;23.360;2022-09-01T11:50:06;8.50;;;5.40;;
34741;SDS011;20968;42.696;23.360;2022-09-01T11:52:41;6.43;;;5.03;;
34741;SDS011;20968;42.696;23.360;2022-09-01T11:55:16;7.90;;;5.43;;
34741;SDS011;20968;42.696;23.360;2022-09-01T11:57:53;7.88;;;5.32;;
34741;SDS011;20968;42.696;23.360;2022-09-01T12:00:24;7.78;;;5.45;;
34741;SDS011;20968;42.696;23.360;2022-09-01T12:02:55;9.68;;;5.70;;
34741;SDS011;20968;42.696;23.360;2022-09-01T12:05:26;7.10;;;4.68;;
34741;SDS011;20968;42.696;23.360;2022-09-01T12:07:54;10.35;;;5.15;;
34741;SDS011;20968;42.696;23.360;2022-09-01T12:10:28;7.78;;;5.75;;
34741;SDS011;20968;42.696;23.360;2022-09-01T12:15:31;8.63;;;6.05;;
34741;SDS011;20968;42.696;23.360;2022-09-01T12:20:46;11.75;;;6.63;;
34741;SDS011;20968;42.696;23.360;2022-09-01T12:23:15;12.30;;;7.28;;
34741;SDS011;20968;42.696;23.360;2022-09-01T12:25:41;9.25;;;6.50;;
34741;SDS011;20968;42.696;23.360;2022-09-01T12:28:08;8.95;;;5.90;;
34741;SDS011;20968;42.696;23.360;2022-09-01T12:30:35;12.68;;;6.07;;
34741;SDS011;20968;42.696;23.360;2022-09-01T12:33:04;9.10;;;6.18;;
34741;SDS011;20968;42.696;23.360;2022-09-01T12:38:34;12.98;;;7.38;;
34741;SDS011;20968;42.696;23.360;2022-09-01T12:42:04;9.02;;;5.72;;
34741;SDS011;20968;42.696;23.360;2022-09-01T12:45:08;11.55;;;7.47;;
34741;SDS011;20968;42.696;23.360;2022-09-01T12:52:27;10.15;;;7.07;;
34741;SDS011;20968;42.696;23.360;2022-09-01T12:58:08;11.02;;;7.50;;
34741;SDS011;20968;42.696;23.360;2022-09-01T13:02:50;7.53;;;6.78;;
34741;SDS011;20968;42.696;23.360;2022-09-01T13:05:30;10.85;;;6.78;;
34741;SDS011;20968;42.696;23.360;2022-09-01T13:08:09;15.82;;;6.28;;
34741;SDS011;20968;42.696;23.360;2022-09-01T13:13:38;11.57;;;6.18;;
34741;SDS011;20968;42.696;23.360;2022-09-01T13:16:39;8.40;;;6.43;;
34741;SDS011;20968;42.696;23.360;2022-09-01T13:19:07;14.55;;;6.25;;
34741;SDS011;20968;42.696;23.360;2022-09-01T13:21:33;6.72;;;5.70;;
34741;SDS011;20968;42.696;23.360;2022-09-01T13:24:00;9.60;;;6.15;;
34741;SDS011;20968;42.696;23.360;2022-09-01T13:26:30;7.13;;;5.85;;
34741;SDS011;20968;42.696;23.360;2022-09-01T13:28:57;5.85;;;5.07;;
34741;SDS011;20968;42.696;23.360;2022-09-01T13:31:23;10.23;;;5.60;;
34741;SDS011;20968;42.696;23.360;2022-09-01T13:33:49;9.57;;;6.57;;
34741;SDS011;20968;42.696;23.360;2022-09-01T13:36:14;7.97;;;5.18;;
34741;SDS011;20968;42.696;23.360;2022-09-01T13:38:58;6.63;;;5.95;;
34741;SDS011;20968;42.696;23.360;2022-09-01T13:41:34;9.02;;;6.80;;
34741;SDS011;20968;42.696;23.360;2022-09-01T13:44:01;9.07;;;5.75;;
34741;SDS011;20968;42.696;23.360;2022-09-01T13:46:27;7.15;;;5.45;;
34741;SDS011;20968;42.696;23.360;2022-09-01T13:48:52;11.50;;;6.22;;
34741;SDS011;20968;42.696;23.360;2022-09-01T13:51:25;8.18;;;5.50;;
34741;SDS011;20968;42.696;23.360;2022-09-01T13:53:51;6.82;;;5.90;;
34741;SDS011;20968;42.696;23.360;2022-09-01T13:56:17;7.28;;;5.32;;
34741;SDS011;20968;42.696;23.360;2022-09-01T13:58:42;7.32;;;5.95;;
34741;SDS011;20968;42.696;23.360;2022-09-01T14:01:10;16.60;;;6.72;;
34741;SDS011;20968;42.696;23.360;2022-09-01T14:07:02;7.30;;;5.53;;
34741;SDS011;20968;42.696;23.360;2022-09-01T14:09:27;10.18;;;6.65;;
34741;SDS011;20968;42.696;23.360;2022-09-01T14:12:02;13.25;;;7.53;;
34741;SDS011;20968;42.696;23.360;2022-09-01T14:14:32;9.82;;;6.72;;
34741;SDS011;20968;42.696;23.360;2022-09-01T14:17:00;8.95;;;6.53;;
34741;SDS011;20968;42.696;23.360;2022-09-01T14:19:27;7.97;;;6.22;;
34741;SDS011;20968;42.696;23.360;2022-09-01T14:21:53;8.00;;;6.40;;
34741;SDS011;20968;42.696;23.360;2022-09-01T14:24:22;9.10;;;6.82;;
34741;SDS011;20968;42.696;23.360;2022-09-01T14:26:47;7.35;;;6.05;;
34741;SDS011;20968;42.696;23.360;2022-09-01T14:29:14;12.77;;;7.03;;
34741;SDS011;20968;42.696;23.360;2022-09-01T14:31:41;9.80;;;6.68;;
34741;SDS011;20968;42.696;23.360;2022-09-01T14:34:14;9.77;;;7.30;;
34741;SDS011;20968;42.696;23.360;2022-09-01T14:36:43;9.55;;;7.28;;
34741;SDS011;20968;42.696;23.360;2022-09-01T14:39:09;9.95;;;7.38;;
34741;SDS011;20968;42.696;23.360;2022-09-01T14:41:34;11.35;;;6.90;;
34741;SDS011;20968;42.696;23.360;2022-09-01T14:44:00;12.00;;;7.82;;
34741;SDS011;20968;42.696;23.360;2022-09-01T14:46:27;8.95;;;7.22;;
34741;SDS011;20968;42.696;23.360;2022-09-01T14:48:54;10.65;;;7.45;;
34741;SDS011;20968;42.696;23.360;2022-09-01T14:51:22;9.00;;;7.20;;
34741;SDS011;20968;42.696;23.360;2022-09-01T14:53:49;13.88;;;7.75;;
34741;SDS011;20968;42.696;23.360;2022-09-01T14:56:15;13.52;;;7.85;;
34741;SDS011;20968;42.696;23.360;2022-09-01T14:58:43;11.23;;;8.25;;
34741;SDS011;20968;42.696;23.360;2022-09-01T15:01:11;10.10;;;7.72;;
34741;SDS011;20968;42.696;23.360;2022-09-01T15:03:42;10.98;;;7.97;;
34741;SDS011;20968;42.696;23.360;2022-09-01T15:06:10;10.52;;;7.15;;
34741;SDS011;20968;42.696;23.360;2022-09-01T15:08:37;14.25;;;7.40;;
34741;SDS011;20968;42.696;23.360;2022-09-01T15:11:06;11.93;;;8.27;;
34741;SDS011;20968;42.696;23.360;2022-09-01T15:13:35;10.10;;;7.25;;
34741;SDS011;20968;42.696;23.360;2022-09-01T15:16:00;10.43;;;7.57;;
34741;SDS011;20968;42.696;23.360;2022-09-01T15:18:26;9.63;;;7.40;;
34741;SDS011;20968;42.696;23.360;2022-09-01T15:20:52;8.10;;;6.28;;
34741;SDS011;20968;42.696;23.360;2022-09-01T15:23:31;10.63;;;7.32;;
34741;SDS011;20968;42.696;23.360;2022-09-01T15:26:16;9.35;;;7.20;;
34741;SDS011;20968;42.696;23.360;2022-09-01T15:34:08;10.35;;;6.75;;
34741;SDS011;20968;42.696;23.360;2022-09-01T15:36:34;10.43;;;6.72;;
34741;SDS011;20968;42.696;23.360;2022-09-01T15:39:03;13.98;;;7.10;;
34741;SDS011;20968;42.696;23.360;2022-09-01T15:41:30;12.05;;;7.40;;
34741;SDS011;20968;42.696;23.360;2022-09-01T15:43:57;10.50;;;7.57;;
34741;SDS011;20968;42.696;23.360;2022-09-01T15:46:23;7.50;;;6.38;;
34741;SDS011;20968;42.696;23.360;2022-09-01T15:51:27;13.20;;;7.28;;
34741;SDS011;20968;42.696;23.360;2022-09-01T15:54:04;6.88;;;5.78;;
34741;SDS011;20968;42.696;23.360;2022-09-01T15:56:41;9.48;;;5.03;;
34741;SDS011;20968;42.696;23.360;2022-09-01T15:59:08;9.30;;;5.40;;
34741;SDS011;20968;42.696;23.360;2022-09-01T16:01:41;8.75;;;4.47;;
34741;SDS011;20968;42.696;23.360;2022-09-01T16:04:09;8.68;;;4.60;;
34741;SDS011;20968;42.696;23.360;2022-09-01T16:06:36;6.00;;;4.60;;
34741;SDS011;20968;42.696;23.360;2022-09-01T16:09:03;10.10;;;4.80;;
34741;SDS011;20968;42.696;23.360;2022-09-01T16:11:30;8.60;;;4.38;;
34741;SDS011;20968;42.696;23.360;2022-09-01T16:13:55;8.45;;;5.15;;
34741;SDS011;20968;42.696;23.360;2022-09-01T16:16:31;8.02;;;5.45;;
34741;SDS011;20968;42.696;23.360;2022-09-01T16:19:32;9.30;;;5.32;;
34741;SDS011;20968;42.696;23.360;2022-09-01T16:24:26;8.50;;;5.70;;
34741;SDS011;20968;42.696;23.360;2022-09-01T16:26:52;8.77;;;4.88;;
34741;SDS011;20968;42.696;23.360;2022-09-01T16:30:08;6.07;;;5.05;;
34741;SDS011;20968;42.696;23.360;2022-09-01T16:32:17;7.57;;;5.18;;
34741;SDS011;20968;42.696;23.360;2022-09-01T16:34:45;7.22;;;5.05;;
34741;SDS011;20968;42.696;23.360;2022-09-01T16:48:37;13.23;;;6.63;;
34741;SDS011;20968;42.696;23.360;2022-09-01T17:05:26;12.45;;;7.13;;
34741;SDS011;20968;42.696;23.360;2022-09-01T17:11:06;8.90;;;7.32;;
34741;SDS011;20968;42.696;23.360;2022-09-01T17:13:42;13.68;;;8.70;;
34741;SDS011;20968;42.696;23.360;2022-09-01T17:16:18;10.15;;;7.47;;
34741;SDS011;20968;42.696;23.360;2022-09-01T17:18:50;14.05;;;7.68;;
34741;SDS011;20968;42.696;23.360;2022-09-01T17:21:26;14.80;;;8.00;;
34741;SDS011;20968;42.696;23.360;2022-09-01T17:26:41;12.93;;;9.57;;
34741;SDS011;20968;42.696;23.360;2022-09-01T17:37:36;9.52;;;7.53;;
34741;SDS011;20968;42.696;23.360;2022-09-01T17:42:48;11.65;;;7.90;;
34741;SDS011;20968;42.696;23.360;2022-09-01T17:48:13;13.30;;;8.82;;
34741;SDS011;20968;42.696;23.360;2022-09-01T18:05:33;10.68;;;7.68;;
34741;SDS011;20968;42.696;23.360;2022-09-01T18:11:00;7.95;;;6.32;;
34741;SDS011;20968;42.696;23.360;2022-09-01T18:13:44;10.13;;;7.47;;
34741;SDS011;20968;42.696;23.360;2022-09-01T18:16:16;11.27;;;6.15;;
34741;SDS011;20968;42.696;23.360;2022-09-01T18:18:48;10.45;;;7.35;;
34741;SDS011;20968;42.696;23.360;2022-09-01T18:21:19;13.70;;;7.13;;
34741;SDS011;20968;42.696;23.360;2022-09-01T18:24:10;12.38;;;6.25;;